sensor_id;sensor_type;location;lat;lon;timestamp;temperature;humidity
45765;DHT22;31474;45.332;10.230;2023-08-30T00:00:46;20.50;99.90
45765;DHT22;31474;45.332;10.230;2023-08-30T00:03:12;20.50;99.90
45765;DHT22;31474;45.332;10.230;2023-08-30T00:05:41;20.60;99.90
45765;DHT22;31474;45.332;10.230;2023-08-30T00:08:08;20.50;99.90
45765;DHT22;31474;45.332;10.230;2023-08-30T00:10:34;20.40;99.90
45765;DHT22;31474;45.332;10.230;2023-08-30T00:13:00;20.40;99.90
45765;DHT22;31474;45.332;10.230;2023-08-30T00:15:26;20.40;99.90
45765;DHT22;31474;45.332;10.230;2023-08-30T00:17:51;20.50;99.90
45765;DHT22;31474;45.332;10.230;2023-08-30T00:20:18;20.40;99.90
45765;DHT22;31474;45.332;10.230;2023-08-30T00:22:44;20.40;99.90
45765;DHT22;31474;45.332;10.230;2023-08-30T00:25:09;20.30;99.90
45765;DHT22;31474;45.332;10.230;2023-08-30T00:27:35;20.30;99.90
45765;DHT22;31474;45.332;10.230;2023-08-30T00:30:00;20.30;99.90
45765;DHT22;31474;45.332;10.230;2023-08-30T00:32:26;20.30;99.90
45765;DHT22;31474;45.332;10.230;2023-08-30T00:34:52;20.30;99.90
45765;DHT22;31474;45.332;10.230;2023-08-30T00:37:17;20.30;99.90
45765;DHT22;31474;45.332;10.230;2023-08-30T00:39:43;20.20;99.90
45765;DHT22;31474;45.332;10.230;2023-08-30T00:42:09;20.20;99.90
45765;DHT22;31474;45.332;10.230;2023-08-30T00:44:34;20.20;99.90
45765;DHT22;31474;45.332;10.230;2023-08-30T00:47:01;20.20;99.90
45765;DHT22;31474;45.332;10.230;2023-08-30T00:49:29;20.20;99.90
45765;DHT22;31474;45.332;10.230;2023-08-30T00:51:55;20.10;99.90
45765;DHT22;31474;45.332;10.230;2023-08-30T00:54:21;20.10;99.90
45765;DHT22;31474;45.332;10.230;2023-08-30T00:56:47;20.20;99.90
45765;DHT22;31474;45.332;10.230;2023-08-30T00:59:13;20.20;99.90
45765;DHT22;31474;45.332;10.230;2023-08-30T01:01:40;20.20;99.90
45765;DHT22;31474;45.332;10.230;2023-08-30T01:04:06;20.10;99.90
45765;DHT22;31474;45.332;10.230;2023-08-30T01:06:33;20.10;99.90
45765;DHT22;31474;45.332;10.230;2023-08-30T01:09:01;20.00;99.90
45765;DHT22;31474;45.332;10.230;2023-08-30T01:11:53;19.90;99.90
45765;DHT22;31474;45.332;10.230;2023-08-30T01:14:25;19.90;99.90
45765;DHT22;31474;45.332;10.230;2023-08-30T01:16:54;19.90;99.90
45765;DHT22;31474;45.332;10.230;2023-08-30T01:20:04;19.90;99.90
45765;DHT22;31474;45.332;10.230;2023-08-30T01:25:43;20.00;99.90
45765;DHT22;31474;45.332;10.230;2023-08-30T01:28:06;20.10;99.90
45765;DHT22;31474;45.332;10.230;2023-08-30T01:30:34;20.10;99.90
45765;DHT22;31474;45.332;10.230;2023-08-30T01:33:03;20.10;99.90
45765;DHT22;31474;45.332;10.230;2023-08-30T01:35:32;20.10;99.90
45765;DHT22;31474;45.332;10.230;2023-08-30T01:38:03;20.10;99.90
45765;DHT22;31474;45.332;10.230;2023-08-30T01:40:32;20.00;99.90
45765;DHT22;31474;45.332;10.230;2023-08-30T01:42:59;20.10;99.90
45765;DHT22;31474;45.332;10.230;2023-08-30T01:45:26;20.10;99.90
45765;DHT22;31474;45.332;10.230;2023-08-30T01:47:54;20.10;99.90
45765;DHT22;31474;45.332;10.230;2023-08-30T01:50:21;20.00;99.90
45765;DHT22;31474;45.332;10.230;2023-08-30T01:52:47;20.00;99.90
45765;DHT22;31474;45.332;10.230;2023-08-30T01:55:14;20.00;99.90
45765;DHT22;31474;45.332;10.230;2023-08-30T01:57:40;19.90;99.90
45765;DHT22;31474;45.332;10.230;2023-08-30T02:00:06;19.90;99.90
45765;DHT22;31474;45.332;10.230;2023-08-30T02:02:33;20.00;99.90
45765;DHT22;31474;45.332;10.230;2023-08-30T02:04:59;20.00;99.90
45765;DHT22;31474;45.332;10.230;2023-08-30T02:10:41;20.00;99.90
45765;DHT22;31474;45.332;10.230;2023-08-30T02:13:11;20.00;99.90
45765;DHT22;31474;45.332;10.230;2023-08-30T02:15:38;20.00;99.90
45765;DHT22;31474;45.332;10.230;2023-08-30T02:18:07;20.10;99.90
45765;DHT22;31474;45.332;10.230;2023-08-30T02:20:33;20.00;99.90
45765;DHT22;31474;45.332;10.230;2023-08-30T02:22:59;20.00;99.90
45765;DHT22;31474;45.332;10.230;2023-08-30T02:25:25;20.10;99.90
45765;DHT22;31474;45.332;10.230;2023-08-30T02:27:51;20.10;99.90
45765;DHT22;31474;45.332;10.230;2023-08-30T02:30:17;20.10;99.90
45765;DHT22;31474;45.332;10.230;2023-08-30T02:32:43;20.10;99.90
45765;DHT22;31474;45.332;10.230;2023-08-30T02:35:08;20.10;99.90
45765;DHT22;31474;45.332;10.230;2023-08-30T02:37:34;20.20;99.90
45765;DHT22;31474;45.332;10.230;2023-08-30T02:40:00;20.10;99.90
45765;DHT22;31474;45.332;10.230;2023-08-30T02:42:26;20.10;99.90
45765;DHT22;31474;45.332;10.230;2023-08-30T02:44:52;20.10;99.90
45765;DHT22;31474;45.332;10.230;2023-08-30T02:47:18;20.10;99.90
45765;DHT22;31474;45.332;10.230;2023-08-30T02:49:44;20.10;99.90
45765;DHT22;31474;45.332;10.230;2023-08-30T02:52:09;20.00;99.90
45765;DHT22;31474;45.332;10.230;2023-08-30T02:54:35;20.00;99.90
45765;DHT22;31474;45.332;10.230;2023-08-30T02:57:00;20.00;99.90
45765;DHT22;31474;45.332;10.230;2023-08-30T02:59:26;19.90;99.90
45765;DHT22;31474;45.332;10.230;2023-08-30T03:01:52;20.00;99.90
45765;DHT22;31474;45.332;10.230;2023-08-30T03:04:17;19.90;99.90
45765;DHT22;31474;45.332;10.230;2023-08-30T03:06:43;19.90;99.90
45765;DHT22;31474;45.332;10.230;2023-08-30T03:09:09;19.80;99.90
45765;DHT22;31474;45.332;10.230;2023-08-30T03:11:34;19.80;99.90
45765;DHT22;31474;45.332;10.230;2023-08-30T03:14:00;19.90;99.90
45765;DHT22;31474;45.332;10.230;2023-08-30T03:16:26;19.90;99.90
45765;DHT22;31474;45.332;10.230;2023-08-30T03:18:51;19.90;99.90
45765;DHT22;31474;45.332;10.230;2023-08-30T03:21:17;19.90;99.90
45765;DHT22;31474;45.332;10.230;2023-08-30T03:23:43;19.90;99.90
45765;DHT22;31474;45.332;10.230;2023-08-30T03:26:13;19.90;99.90
45765;DHT22;31474;45.332;10.230;2023-08-30T03:28:40;19.90;99.90
45765;DHT22;31474;45.332;10.230;2023-08-30T03:31:19;19.90;99.90
45765;DHT22;31474;45.332;10.230;2023-08-30T03:33:45;19.90;99.90
45765;DHT22;31474;45.332;10.230;2023-08-30T03:36:13;19.90;99.90
45765;DHT22;31474;45.332;10.230;2023-08-30T03:38:39;19.90;99.90
45765;DHT22;31474;45.332;10.230;2023-08-30T03:41:05;19.90;99.90
45765;DHT22;31474;45.332;10.230;2023-08-30T03:43:31;19.90;99.90
45765;DHT22;31474;45.332;10.230;2023-08-30T03:45:58;19.90;99.90
45765;DHT22;31474;45.332;10.230;2023-08-30T03:48:24;19.90;99.90
45765;DHT22;31474;45.332;10.230;2023-08-30T03:50:50;19.90;99.90
45765;DHT22;31474;45.332;10.230;2023-08-30T03:53:15;19.90;99.90
45765;DHT22;31474;45.332;10.230;2023-08-30T03:55:41;19.90;99.90
45765;DHT22;31474;45.332;10.230;2023-08-30T03:58:07;19.90;99.90
45765;DHT22;31474;45.332;10.230;2023-08-30T04:00:36;19.80;99.90
45765;DHT22;31474;45.332;10.230;2023-08-30T04:03:02;19.80;99.90
45765;DHT22;31474;45.332;10.230;2023-08-30T04:05:32;19.70;99.90
45765;DHT22;31474;45.332;10.230;2023-08-30T04:07:59;19.80;99.90
45765;DHT22;31474;45.332;10.230;2023-08-30T04:10:24;19.80;99.90
45765;DHT22;31474;45.332;10.230;2023-08-30T04:12:50;19.80;99.90
45765;DHT22;31474;45.332;10.230;2023-08-30T04:15:15;19.70;99.90
45765;DHT22;31474;45.332;10.230;2023-08-30T04:17:41;19.70;99.90
45765;DHT22;31474;45.332;10.230;2023-08-30T04:20:07;19.80;99.90
45765;DHT22;31474;45.332;10.230;2023-08-30T04:22:33;19.80;99.90
45765;DHT22;31474;45.332;10.230;2023-08-30T04:25:00;19.70;99.90
45765;DHT22;31474;45.332;10.230;2023-08-30T04:27:25;19.80;99.90
45765;DHT22;31474;45.332;10.230;2023-08-30T04:29:52;19.80;99.90
45765;DHT22;31474;45.332;10.230;2023-08-30T04:32:18;19.80;99.90
45765;DHT22;31474;45.332;10.230;2023-08-30T04:34:44;19.80;99.90
45765;DHT22;31474;45.332;10.230;2023-08-30T04:37:09;19.80;99.90
45765;DHT22;31474;45.332;10.230;2023-08-30T04:39:35;19.70;99.90
45765;DHT22;31474;45.332;10.230;2023-08-30T04:42:01;19.80;99.90
45765;DHT22;31474;45.332;10.230;2023-08-30T04:44:28;19.80;99.90
45765;DHT22;31474;45.332;10.230;2023-08-30T04:46:54;19.80;99.90
45765;DHT22;31474;45.332;10.230;2023-08-30T04:49:20;19.80;99.90
45765;DHT22;31474;45.332;10.230;2023-08-30T04:51:46;19.70;99.90
45765;DHT22;31474;45.332;10.230;2023-08-30T04:54:12;19.80;99.90
45765;DHT22;31474;45.332;10.230;2023-08-30T04:56:38;19.70;99.90
45765;DHT22;31474;45.332;10.230;2023-08-30T04:59:04;19.70;99.90
45765;DHT22;31474;45.332;10.230;2023-08-30T05:01:30;19.70;99.90
45765;DHT22;31474;45.332;10.230;2023-08-30T05:03:56;19.70;99.90
45765;DHT22;31474;45.332;10.230;2023-08-30T05:06:21;19.80;99.90
45765;DHT22;31474;45.332;10.230;2023-08-30T05:08:47;19.70;99.90
45765;DHT22;31474;45.332;10.230;2023-08-30T05:11:13;19.70;99.90
45765;DHT22;31474;45.332;10.230;2023-08-30T05:13:38;19.80;99.90
45765;DHT22;31474;45.332;10.230;2023-08-30T05:16:04;19.80;99.90
45765;DHT22;31474;45.332;10.230;2023-08-30T05:18:30;19.70;99.90
45765;DHT22;31474;45.332;10.230;2023-08-30T05:20:56;19.70;99.90
45765;DHT22;31474;45.332;10.230;2023-08-30T05:23:21;19.70;99.90
45765;DHT22;31474;45.332;10.230;2023-08-30T05:25:48;19.70;99.90
45765;DHT22;31474;45.332;10.230;2023-08-30T05:28:14;19.70;99.90
45765;DHT22;31474;45.332;10.230;2023-08-30T05:30:42;19.70;99.90
45765;DHT22;31474;45.332;10.230;2023-08-30T05:33:09;19.70;99.90
45765;DHT22;31474;45.332;10.230;2023-08-30T05:35:34;19.70;99.90
45765;DHT22;31474;45.332;10.230;2023-08-30T05:38:00;19.70;99.90
45765;DHT22;31474;45.332;10.230;2023-08-30T05:40:26;19.70;99.90
45765;DHT22;31474;45.332;10.230;2023-08-30T05:42:51;19.80;99.90
45765;DHT22;31474;45.332;10.230;2023-08-30T05:45:17;19.80;99.90
45765;DHT22;31474;45.332;10.230;2023-08-30T05:47:43;19.80;99.90
45765;DHT22;31474;45.332;10.230;2023-08-30T05:50:09;19.90;99.90
45765;DHT22;31474;45.332;10.230;2023-08-30T05:52:34;19.90;99.90
45765;DHT22;31474;45.332;10.230;2023-08-30T05:55:00;19.90;99.90
45765;DHT22;31474;45.332;10.230;2023-08-30T05:57:26;20.00;99.90
45765;DHT22;31474;45.332;10.230;2023-08-30T05:59:53;20.00;99.90
45765;DHT22;31474;45.332;10.230;2023-08-30T06:02:18;20.00;99.90
45765;DHT22;31474;45.332;10.230;2023-08-30T06:04:44;20.10;99.90
45765;DHT22;31474;45.332;10.230;2023-08-30T06:07:10;20.10;99.90
45765;DHT22;31474;45.332;10.230;2023-08-30T06:09:35;20.20;99.90
45765;DHT22;31474;45.332;10.230;2023-08-30T06:12:01;20.40;99.90
45765;DHT22;31474;45.332;10.230;2023-08-30T06:14:27;20.50;99.90
45765;DHT22;31474;45.332;10.230;2023-08-30T06:16:52;20.50;99.90
45765;DHT22;31474;45.332;10.230;2023-08-30T06:19:18;20.50;99.90
45765;DHT22;31474;45.332;10.230;2023-08-30T06:21:44;20.50;99.90
45765;DHT22;31474;45.332;10.230;2023-08-30T06:24:09;20.40;99.90
45765;DHT22;31474;45.332;10.230;2023-08-30T06:26:35;20.40;99.90
45765;DHT22;31474;45.332;10.230;2023-08-30T06:29:00;20.40;99.90
45765;DHT22;31474;45.332;10.230;2023-08-30T06:31:26;20.50;99.90
45765;DHT22;31474;45.332;10.230;2023-08-30T06:33:53;20.60;99.90
45765;DHT22;31474;45.332;10.230;2023-08-30T06:36:18;20.70;99.90
45765;DHT22;31474;45.332;10.230;2023-08-30T06:38:44;20.70;99.90
45765;DHT22;31474;45.332;10.230;2023-08-30T06:41:10;20.80;99.90
45765;DHT22;31474;45.332;10.230;2023-08-30T06:43:36;20.90;99.90
45765;DHT22;31474;45.332;10.230;2023-08-30T06:46:02;21.10;99.90
45765;DHT22;31474;45.332;10.230;2023-08-30T06:48:28;21.10;99.90
45765;DHT22;31474;45.332;10.230;2023-08-30T06:50:57;21.20;99.90
45765;DHT22;31474;45.332;10.230;2023-08-30T06:53:24;21.30;99.90
45765;DHT22;31474;45.332;10.230;2023-08-30T06:55:59;21.50;99.90
45765;DHT22;31474;45.332;10.230;2023-08-30T06:58:25;21.50;99.90
45765;DHT22;31474;45.332;10.230;2023-08-30T07:00:51;21.60;99.90
45765;DHT22;31474;45.332;10.230;2023-08-30T07:03:17;21.80;99.90
45765;DHT22;31474;45.332;10.230;2023-08-30T07:05:42;22.10;99.90
45765;DHT22;31474;45.332;10.230;2023-08-30T07:08:09;22.30;99.90
45765;DHT22;31474;45.332;10.230;2023-08-30T07:10:35;22.40;99.90
45765;DHT22;31474;45.332;10.230;2023-08-30T07:13:01;22.50;99.90
45765;DHT22;31474;45.332;10.230;2023-08-30T07:15:26;22.80;99.90
45765;DHT22;31474;45.332;10.230;2023-08-30T07:17:52;23.00;99.90
45765;DHT22;31474;45.332;10.230;2023-08-30T07:20:18;23.00;99.90
45765;DHT22;31474;45.332;10.230;2023-08-30T07:22:43;23.20;99.90
45765;DHT22;31474;45.332;10.230;2023-08-30T07:25:09;23.50;99.90
45765;DHT22;31474;45.332;10.230;2023-08-30T07:27:39;23.60;99.90
45765;DHT22;31474;45.332;10.230;2023-08-30T07:30:05;23.90;99.90
45765;DHT22;31474;45.332;10.230;2023-08-30T07:32:30;24.00;99.90
45765;DHT22;31474;45.332;10.230;2023-08-30T07:34:56;24.20;99.90
45765;DHT22;31474;45.332;10.230;2023-08-30T07:37:22;24.20;99.90
45765;DHT22;31474;45.332;10.230;2023-08-30T07:39:48;24.10;99.90
45765;DHT22;31474;45.332;10.230;2023-08-30T07:42:14;24.20;99.90
45765;DHT22;31474;45.332;10.230;2023-08-30T07:44:42;24.40;99.90
45765;DHT22;31474;45.332;10.230;2023-08-30T07:47:08;24.60;99.90
45765;DHT22;31474;45.332;10.230;2023-08-30T07:49:34;24.70;99.90
45765;DHT22;31474;45.332;10.230;2023-08-30T07:52:00;24.50;99.90
45765;DHT22;31474;45.332;10.230;2023-08-30T07:54:26;24.50;99.90
45765;DHT22;31474;45.332;10.230;2023-08-30T07:56:51;24.40;99.90
45765;DHT22;31474;45.332;10.230;2023-08-30T07:59:17;24.20;99.90
45765;DHT22;31474;45.332;10.230;2023-08-30T08:01:42;24.10;99.90
45765;DHT22;31474;45.332;10.230;2023-08-30T08:04:08;23.90;99.90
45765;DHT22;31474;45.332;10.230;2023-08-30T08:06:34;23.90;99.90
45765;DHT22;31474;45.332;10.230;2023-08-30T08:09:00;23.90;99.90
45765;DHT22;31474;45.332;10.230;2023-08-30T08:11:26;23.70;99.90
45765;DHT22;31474;45.332;10.230;2023-08-30T08:13:52;23.70;99.90
45765;DHT22;31474;45.332;10.230;2023-08-30T08:16:17;24.00;99.90
45765;DHT22;31474;45.332;10.230;2023-08-30T08:18:43;24.20;99.90
45765;DHT22;31474;45.332;10.230;2023-08-30T08:21:08;24.20;99.90
45765;DHT22;31474;45.332;10.230;2023-08-30T08:23:34;24.50;99.90
45765;DHT22;31474;45.332;10.230;2023-08-30T08:26:00;24.70;99.90
45765;DHT22;31474;45.332;10.230;2023-08-30T08:28:26;24.80;99.90
45765;DHT22;31474;45.332;10.230;2023-08-30T08:30:52;24.90;99.90
45765;DHT22;31474;45.332;10.230;2023-08-30T08:33:18;25.00;99.90
45765;DHT22;31474;45.332;10.230;2023-08-30T08:35:44;25.00;99.90
45765;DHT22;31474;45.332;10.230;2023-08-30T08:38:10;25.00;99.90
45765;DHT22;31474;45.332;10.230;2023-08-30T08:40:39;25.10;99.90
45765;DHT22;31474;45.332;10.230;2023-08-30T08:43:05;25.10;99.90
45765;DHT22;31474;45.332;10.230;2023-08-30T08:45:35;25.10;99.90
45765;DHT22;31474;45.332;10.230;2023-08-30T08:48:03;25.30;99.90
45765;DHT22;31474;45.332;10.230;2023-08-30T08:50:29;25.30;99.90
45765;DHT22;31474;45.332;10.230;2023-08-30T08:52:56;25.10;99.90
45765;DHT22;31474;45.332;10.230;2023-08-30T08:55:22;25.10;99.90
45765;DHT22;31474;45.332;10.230;2023-08-30T08:57:48;25.30;99.90
45765;DHT22;31474;45.332;10.230;2023-08-30T09:00:14;25.20;99.90
45765;DHT22;31474;45.332;10.230;2023-08-30T09:02:42;25.20;99.90
45765;DHT22;31474;45.332;10.230;2023-08-30T09:05:08;25.40;99.90
45765;DHT22;31474;45.332;10.230;2023-08-30T09:07:36;25.60;99.90
45765;DHT22;31474;45.332;10.230;2023-08-30T09:10:03;25.80;99.90
45765;DHT22;31474;45.332;10.230;2023-08-30T09:12:32;25.90;99.90
45765;DHT22;31474;45.332;10.230;2023-08-30T09:14:58;25.80;99.90
45765;DHT22;31474;45.332;10.230;2023-08-30T09:17:24;25.70;99.90
45765;DHT22;31474;45.332;10.230;2023-08-30T09:20:09;25.80;99.90
45765;DHT22;31474;45.332;10.230;2023-08-30T09:22:41;25.50;99.90
45765;DHT22;31474;45.332;10.230;2023-08-30T09:25:22;25.00;99.60
45765;DHT22;31474;45.332;10.230;2023-08-30T09:27:48;25.00;99.90
45765;DHT22;31474;45.332;10.230;2023-08-30T09:30:14;25.10;99.90
45765;DHT22;31474;45.332;10.230;2023-08-30T09:32:41;25.20;99.90
45765;DHT22;31474;45.332;10.230;2023-08-30T09:35:08;25.20;99.90
45765;DHT22;31474;45.332;10.230;2023-08-30T09:37:33;25.30;99.90
45765;DHT22;31474;45.332;10.230;2023-08-30T09:39:59;25.50;99.90
45765;DHT22;31474;45.332;10.230;2023-08-30T09:42:25;25.90;99.90
45765;DHT22;31474;45.332;10.230;2023-08-30T09:44:51;26.00;99.90
45765;DHT22;31474;45.332;10.230;2023-08-30T09:47:16;26.20;99.90
45765;DHT22;31474;45.332;10.230;2023-08-30T09:49:45;26.30;99.90
45765;DHT22;31474;45.332;10.230;2023-08-30T09:52:15;26.30;99.90
45765;DHT22;31474;45.332;10.230;2023-08-30T09:54:45;26.30;99.90
45765;DHT22;31474;45.332;10.230;2023-08-30T09:57:12;26.50;99.90
45765;DHT22;31474;45.332;10.230;2023-08-30T09:59:39;26.60;99.90
45765;DHT22;31474;45.332;10.230;2023-08-30T10:02:05;26.40;99.10
45765;DHT22;31474;45.332;10.230;2023-08-30T10:04:31;26.30;99.90
45765;DHT22;31474;45.332;10.230;2023-08-30T10:06:58;26.30;99.90
45765;DHT22;31474;45.332;10.230;2023-08-30T10:09:25;26.50;99.90
45765;DHT22;31474;45.332;10.230;2023-08-30T10:11:51;26.30;99.80
45765;DHT22;31474;45.332;10.230;2023-08-30T10:14:17;26.30;99.90
45765;DHT22;31474;45.332;10.230;2023-08-30T10:16:45;26.00;99.70
45765;DHT22;31474;45.332;10.230;2023-08-30T10:19:17;26.10;99.90
45765;DHT22;31474;45.332;10.230;2023-08-30T10:21:44;26.10;99.30
45765;DHT22;31474;45.332;10.230;2023-08-30T10:24:12;26.00;98.80
45765;DHT22;31474;45.332;10.230;2023-08-30T10:26:40;25.70;98.60
45765;DHT22;31474;45.332;10.230;2023-08-30T10:29:09;25.80;99.90
45765;DHT22;31474;45.332;10.230;2023-08-30T10:31:37;25.80;99.60
45765;DHT22;31474;45.332;10.230;2023-08-30T10:34:16;25.90;99.90
45765;DHT22;31474;45.332;10.230;2023-08-30T10:36:43;26.20;99.90
45765;DHT22;31474;45.332;10.230;2023-08-30T10:39:12;26.30;99.50
45765;DHT22;31474;45.332;10.230;2023-08-30T10:41:54;26.30;98.10
45765;DHT22;31474;45.332;10.230;2023-08-30T10:44:20;26.40;97.30
45765;DHT22;31474;45.332;10.230;2023-08-30T10:46:52;26.30;98.90
45765;DHT22;31474;45.332;10.230;2023-08-30T10:49:18;26.40;99.80
45765;DHT22;31474;45.332;10.230;2023-08-30T10:51:44;26.70;98.70
45765;DHT22;31474;45.332;10.230;2023-08-30T10:54:11;26.60;97.80
45765;DHT22;31474;45.332;10.230;2023-08-30T10:59:20;26.40;95.90
45765;DHT22;31474;45.332;10.230;2023-08-30T11:01:46;26.30;96.30
45765;DHT22;31474;45.332;10.230;2023-08-30T11:04:14;26.30;95.90
45765;DHT22;31474;45.332;10.230;2023-08-30T11:06:42;26.30;97.90
45765;DHT22;31474;45.332;10.230;2023-08-30T11:09:08;26.40;97.10
45765;DHT22;31474;45.332;10.230;2023-08-30T11:11:37;26.50;97.50
45765;DHT22;31474;45.332;10.230;2023-08-30T11:14:09;26.50;96.70
45765;DHT22;31474;45.332;10.230;2023-08-30T11:16:36;26.60;96.60
45765;DHT22;31474;45.332;10.230;2023-08-30T11:19:04;26.70;96.80
45765;DHT22;31474;45.332;10.230;2023-08-30T11:21:43;26.80;97.00
45765;DHT22;31474;45.332;10.230;2023-08-30T11:24:09;26.80;94.60
45765;DHT22;31474;45.332;10.230;2023-08-30T11:26:35;26.80;97.20
45765;DHT22;31474;45.332;10.230;2023-08-30T11:29:07;26.80;95.40
45765;DHT22;31474;45.332;10.230;2023-08-30T11:31:33;26.70;96.70
45765;DHT22;31474;45.332;10.230;2023-08-30T11:33:59;26.70;95.40
45765;DHT22;31474;45.332;10.230;2023-08-30T11:36:30;26.70;95.70
45765;DHT22;31474;45.332;10.230;2023-08-30T11:38:56;26.80;96.20
45765;DHT22;31474;45.332;10.230;2023-08-30T11:41:23;26.80;96.50
45765;DHT22;31474;45.332;10.230;2023-08-30T11:43:50;26.90;96.90
45765;DHT22;31474;45.332;10.230;2023-08-30T11:46:17;26.90;96.70
45765;DHT22;31474;45.332;10.230;2023-08-30T11:48:44;26.90;95.90
45765;DHT22;31474;45.332;10.230;2023-08-30T11:51:10;27.00;96.40
45765;DHT22;31474;45.332;10.230;2023-08-30T11:53:39;27.10;96.00
45765;DHT22;31474;45.332;10.230;2023-08-30T11:56:06;27.00;95.40
45765;DHT22;31474;45.332;10.230;2023-08-30T11:58:33;27.00;95.50
45765;DHT22;31474;45.332;10.230;2023-08-30T12:00:59;27.10;95.20
45765;DHT22;31474;45.332;10.230;2023-08-30T12:03:28;26.90;95.60
45765;DHT22;31474;45.332;10.230;2023-08-30T12:05:55;26.60;94.00
45765;DHT22;31474;45.332;10.230;2023-08-30T12:08:25;26.60;95.10
45765;DHT22;31474;45.332;10.230;2023-08-30T12:10:51;26.60;94.60
45765;DHT22;31474;45.332;10.230;2023-08-30T12:13:27;26.60;95.20
45765;DHT22;31474;45.332;10.230;2023-08-30T12:15:54;26.70;94.90
45765;DHT22;31474;45.332;10.230;2023-08-30T12:18:21;26.90;95.20
45765;DHT22;31474;45.332;10.230;2023-08-30T12:20:55;27.00;94.60
45765;DHT22;31474;45.332;10.230;2023-08-30T12:23:27;26.90;93.70
45765;DHT22;31474;45.332;10.230;2023-08-30T12:26:04;26.90;94.40
45765;DHT22;31474;45.332;10.230;2023-08-30T12:28:31;27.00;93.80
45765;DHT22;31474;45.332;10.230;2023-08-30T12:30:57;26.80;93.60
45765;DHT22;31474;45.332;10.230;2023-08-30T12:33:24;26.80;93.80
45765;DHT22;31474;45.332;10.230;2023-08-30T12:35:53;26.70;94.20
45765;DHT22;31474;45.332;10.230;2023-08-30T12:38:19;26.60;94.40
45765;DHT22;31474;45.332;10.230;2023-08-30T12:40:48;26.60;94.70
45765;DHT22;31474;45.332;10.230;2023-08-30T12:43:15;26.70;94.70
45765;DHT22;31474;45.332;10.230;2023-08-30T12:45:41;26.80;94.10
45765;DHT22;31474;45.332;10.230;2023-08-30T12:48:07;26.70;94.00
45765;DHT22;31474;45.332;10.230;2023-08-30T12:50:34;26.70;94.30
45765;DHT22;31474;45.332;10.230;2023-08-30T12:53:01;26.80;94.60
45765;DHT22;31474;45.332;10.230;2023-08-30T12:55:27;26.80;94.00
45765;DHT22;31474;45.332;10.230;2023-08-30T12:57:53;26.80;94.80
45765;DHT22;31474;45.332;10.230;2023-08-30T13:00:19;26.80;93.90
45765;DHT22;31474;45.332;10.230;2023-08-30T13:02:44;26.80;93.70
45765;DHT22;31474;45.332;10.230;2023-08-30T13:05:10;26.70;94.00
45765;DHT22;31474;45.332;10.230;2023-08-30T13:07:36;26.70;93.30
45765;DHT22;31474;45.332;10.230;2023-08-30T13:10:03;26.70;94.60
45765;DHT22;31474;45.332;10.230;2023-08-30T13:12:29;26.80;93.70
45765;DHT22;31474;45.332;10.230;2023-08-30T13:14:54;26.80;93.90
45765;DHT22;31474;45.332;10.230;2023-08-30T13:17:20;26.80;94.40
45765;DHT22;31474;45.332;10.230;2023-08-30T13:19:46;26.70;92.60
45765;DHT22;31474;45.332;10.230;2023-08-30T13:22:11;26.60;93.70
45765;DHT22;31474;45.332;10.230;2023-08-30T13:24:37;26.70;94.00
45765;DHT22;31474;45.332;10.230;2023-08-30T13:27:03;26.70;93.70
45765;DHT22;31474;45.332;10.230;2023-08-30T13:29:29;26.80;92.50
45765;DHT22;31474;45.332;10.230;2023-08-30T13:31:55;26.60;93.00
45765;DHT22;31474;45.332;10.230;2023-08-30T13:34:21;26.70;94.10
45765;DHT22;31474;45.332;10.230;2023-08-30T13:36:47;26.70;93.00
45765;DHT22;31474;45.332;10.230;2023-08-30T13:39:12;26.80;93.60
45765;DHT22;31474;45.332;10.230;2023-08-30T13:41:38;26.90;94.20
45765;DHT22;31474;45.332;10.230;2023-08-30T13:44:04;27.00;93.40
45765;DHT22;31474;45.332;10.230;2023-08-30T13:46:30;27.00;93.70
45765;DHT22;31474;45.332;10.230;2023-08-30T13:48:56;27.10;93.90
45765;DHT22;31474;45.332;10.230;2023-08-30T13:51:23;27.10;94.20
45765;DHT22;31474;45.332;10.230;2023-08-30T13:53:49;27.10;93.70
45765;DHT22;31474;45.332;10.230;2023-08-30T13:56:15;27.20;93.30
45765;DHT22;31474;45.332;10.230;2023-08-30T13:58:40;27.10;93.90
45765;DHT22;31474;45.332;10.230;2023-08-30T14:01:07;27.10;93.40
45765;DHT22;31474;45.332;10.230;2023-08-30T14:03:32;27.10;93.90
45765;DHT22;31474;45.332;10.230;2023-08-30T14:05:58;27.10;93.90
45765;DHT22;31474;45.332;10.230;2023-08-30T14:08:24;27.10;93.70
45765;DHT22;31474;45.332;10.230;2023-08-30T14:10:49;27.10;94.10
45765;DHT22;31474;45.332;10.230;2023-08-30T14:13:15;27.20;94.30
45765;DHT22;31474;45.332;10.230;2023-08-30T14:15:41;27.20;93.90
45765;DHT22;31474;45.332;10.230;2023-08-30T14:18:08;27.20;93.20
45765;DHT22;31474;45.332;10.230;2023-08-30T14:20:33;27.10;93.40
45765;DHT22;31474;45.332;10.230;2023-08-30T14:22:59;27.10;93.10
45765;DHT22;31474;45.332;10.230;2023-08-30T14:25:25;27.10;93.30
45765;DHT22;31474;45.332;10.230;2023-08-30T14:27:50;27.10;93.60
45765;DHT22;31474;45.332;10.230;2023-08-30T14:30:16;27.10;92.30
45765;DHT22;31474;45.332;10.230;2023-08-30T14:32:42;27.00;92.30
45765;DHT22;31474;45.332;10.230;2023-08-30T14:35:08;26.80;92.80
45765;DHT22;31474;45.332;10.230;2023-08-30T14:37:34;26.80;92.50
45765;DHT22;31474;45.332;10.230;2023-08-30T14:40:02;26.80;93.10
45765;DHT22;31474;45.332;10.230;2023-08-30T14:42:29;26.80;93.10
45765;DHT22;31474;45.332;10.230;2023-08-30T14:44:55;26.80;93.60
45765;DHT22;31474;45.332;10.230;2023-08-30T14:47:21;26.90;93.90
45765;DHT22;31474;45.332;10.230;2023-08-30T14:49:47;26.90;93.10
45765;DHT22;31474;45.332;10.230;2023-08-30T14:52:13;26.90;93.30
45765;DHT22;31474;45.332;10.230;2023-08-30T14:54:39;26.90;93.50
45765;DHT22;31474;45.332;10.230;2023-08-30T14:57:06;27.00;93.60
45765;DHT22;31474;45.332;10.230;2023-08-30T14:59:32;26.90;93.60
45765;DHT22;31474;45.332;10.230;2023-08-30T15:01:58;26.90;93.50
45765;DHT22;31474;45.332;10.230;2023-08-30T15:04:24;26.80;93.60
45765;DHT22;31474;45.332;10.230;2023-08-30T15:06:50;26.80;93.60
45765;DHT22;31474;45.332;10.230;2023-08-30T15:09:17;26.80;94.20
45765;DHT22;31474;45.332;10.230;2023-08-30T15:11:43;26.80;93.70
45765;DHT22;31474;45.332;10.230;2023-08-30T15:14:09;26.80;93.80
45765;DHT22;31474;45.332;10.230;2023-08-30T15:16:35;26.80;93.50
45765;DHT22;31474;45.332;10.230;2023-08-30T15:19:01;26.80;93.70
45765;DHT22;31474;45.332;10.230;2023-08-30T15:21:27;26.80;93.90